Terminal Aerodrome Forecast
Issued by NWS Corpus Christi, TX

Home | Current Version | Previous Version | Text Only | Print | Product List | Glossary On
Versions: 1 2 3 4 5 6 7 8 9 10 11 12 13 14 15 16 17 18 19 20 21 22
000
FTUS44 KCRP 280520
TAFVCT
TAF
KVCT 280520Z 2806/2906 12007KT 6SM BR SCT025 BKN250
      TEMPO 2808/2812 4SM BR SCT009 BKN015
     FM281200 15012KT 4SM BR BKN019
     FM281500 14012G20KT P6SM SCT025 BKN035
     FM290200 13009KT P6SM BKN022=

USA.gov is the U.S. government's official web portal to all federal, state and local government web resources and services.